Terminal Aerodrome Forecast
Issued by NWS

Home | Current Version | Previous Version | Graphics & Text | Print | Product List | Glossary On
Versions: 1 2 3 4 5 6 7 8 9 10 11 12 13 14 15 16
000
FTUS43 KMPX 191120
TAFAXN
TAF
KAXN 191120Z 1912/2012 24004KT 3/4SM BR SKC
     FM191300 22006KT P6SM SKC
     FM191900 19010KT P6SM SKC
     FM200300 17006KT P6SM SCT250
     FM201000 21008KT P6SM BKN100=

USA.gov is the U.S. government's official web portal to all federal, state and local government web resources and services.